createdAt,value
2023-03-16T00:01:49.902Z,95467.28
2023-03-16T00:04:17.347Z,95459.47
2023-03-16T00:06:44.736Z,95463.84
2023-03-16T00:09:13.254Z,95474.28
2023-03-16T00:11:42.183Z,95469.75
2023-03-16T00:14:09.974Z,95467.13
2023-03-16T00:16:37.490Z,95459.19
2023-03-16T00:19:05.831Z,95451.38
2023-03-16T00:21:35.177Z,95443.53
2023-03-16T00:24:03.838Z,95450.53
2023-03-16T00:26:31.824Z,95459.19
2023-03-16T00:29:01.726Z,95460.97
2023-03-16T00:31:29.294Z,95458.50
2023-03-16T00:33:56.743Z,95455.06
2023-03-16T00:36:24.165Z,95453.41
2023-03-16T00:38:52.263Z,95452.59
2023-03-16T00:41:19.691Z,95449.97
2023-03-16T00:43:48.776Z,95444.75
2023-03-16T00:46:17.921Z,95454.25
2023-03-16T00:48:46.670Z,95449.84
2023-03-16T00:51:15.289Z,95455.06
2023-03-16T00:53:43.887Z,95458.50
2023-03-16T00:56:11.562Z,95453.28
2023-03-16T00:58:40.214Z,95454.25
2023-03-16T01:01:08.947Z,95447.25
2023-03-16T01:03:38.014Z,95441.19
2023-03-16T01:06:06.338Z,95448.09
2023-03-16T01:08:34.325Z,95440.25
2023-03-16T01:11:03.786Z,95442.03
2023-03-16T01:13:32.452Z,95441.19
2023-03-16T01:15:59.966Z,95436.94
2023-03-16T01:18:27.621Z,95443.13
2023-03-16T01:20:56.467Z,95437.91
2023-03-16T01:23:23.943Z,95446.69
2023-03-16T01:25:53.961Z,95444.06
2023-03-16T01:28:23.495Z,95435.44
2023-03-16T01:30:53.953Z,95438.84
2023-03-16T01:33:21.781Z,95442.28
2023-03-16T01:35:53.493Z,95442.44
2023-03-16T01:38:22.779Z,95444.06
2023-03-16T01:40:51.568Z,95435.31
2023-03-16T01:43:20.016Z,95431.84
2023-03-16T01:46:18.066Z,95432.84
2023-03-16T01:48:48.120Z,95429.41
2023-03-16T01:51:17.066Z,95422.53
2023-03-16T01:53:46.854Z,95425.97
2023-03-16T01:56:18.494Z,95420.75
2023-03-16T01:58:46.687Z,95415.69
2023-03-16T02:01:14.909Z,95422.53
2023-03-16T02:03:43.693Z,95420.75
2023-03-16T02:06:12.881Z,95424.19
2023-03-16T02:08:41.127Z,95424.19
2023-03-16T02:11:10.730Z,95418.13
2023-03-16T02:13:38.217Z,95421.56
2023-03-16T02:16:07.253Z,95425.97
2023-03-16T02:18:35.172Z,95422.53
2023-03-16T02:21:07.906Z,95423.34
2023-03-16T02:23:35.311Z,95423.34
2023-03-16T02:26:08.931Z,95427.75
2023-03-16T02:28:47.943Z,95434.72
2023-03-16T02:31:18.041Z,95415.53
2023-03-16T02:33:45.904Z,95421.69
2023-03-16T02:36:14.940Z,95425.97
2023-03-16T02:38:42.664Z,95418.13
2023-03-16T02:41:12.585Z,95418.97
2023-03-16T02:43:42.729Z,95425.97
2023-03-16T02:46:10.878Z,95418.97
2023-03-16T02:48:44.297Z,95412.09
2023-03-16T02:51:12.017Z,95418.13
2023-03-16T02:53:39.520Z,95424.31
2023-03-16T02:56:07.210Z,95419.91
2023-03-16T02:58:34.782Z,95417.31
2023-03-16T03:01:02.413Z,95413.88
2023-03-16T03:03:29.982Z,95419.09
2023-03-16T03:05:58.851Z,95412.09
2023-03-16T03:08:26.314Z,95415.53
2023-03-16T03:10:53.852Z,95418.13
2023-03-16T03:13:21.312Z,95411.25
2023-03-16T03:15:48.809Z,95407.69
2023-03-16T03:18:16.301Z,95417.31
2023-03-16T03:20:43.757Z,95409.63
2023-03-16T03:23:12.553Z,95404.56
2023-03-16T03:25:40.008Z,95410.72
2023-03-16T03:28:07.494Z,95410.72
2023-03-16T03:30:35.007Z,95409.78
2023-03-16T03:33:02.701Z,95412.50
2023-03-16T03:35:30.280Z,95406.34
2023-03-16T03:37:57.748Z,95414.00
2023-03-16T03:40:26.756Z,95413.19
2023-03-16T03:42:54.431Z,95410.56
2023-03-16T03:45:21.845Z,95407.97
2023-03-16T03:47:49.301Z,95412.38
2023-03-16T03:50:16.829Z,95407.97
2023-03-16T03:52:44.363Z,95405.50
2023-03-16T03:55:11.797Z,95403.88
2023-03-16T03:57:41.205Z,95404.56
2023-03-16T04:00:11.354Z,95407.16
2023-03-16T04:02:39.246Z,95399.47
2023-03-16T04:05:07.379Z,95395.91
2023-03-16T04:07:34.831Z,95397.53
2023-03-16T04:10:02.344Z,95395.06
2023-03-16T04:12:29.792Z,95406.19
2023-03-16T04:14:58.594Z,95398.38
2023-03-16T04:17:26.097Z,95399.19
2023-03-16T04:19:53.542Z,95398.38
2023-03-16T04:22:23.152Z,95393.16
2023-03-16T04:24:52.263Z,95399.19
2023-03-16T04:27:19.727Z,95407.84
2023-03-16T04:29:47.187Z,95409.63
2023-03-16T04:32:16.001Z,95405.25
2023-03-16T04:34:43.734Z,95412.09
2023-03-16T04:37:11.928Z,95415.69
2023-03-16T04:39:39.388Z,95414.84
2023-03-16T04:42:07.601Z,95406.19
2023-03-16T04:44:35.048Z,95402.75
2023-03-16T04:47:02.512Z,95402.91
2023-03-16T04:49:31.325Z,95393.44
2023-03-16T04:51:58.772Z,95394.25
2023-03-16T04:54:26.172Z,95394.25
2023-03-16T04:56:53.610Z,95397.53
2023-03-16T04:59:21.052Z,95391.63
2023-03-16T05:01:48.576Z,95392.47
2023-03-16T05:04:19.460Z,95388.09
2023-03-16T05:06:48.837Z,95386.31
2023-03-16T05:09:16.342Z,95384.38
2023-03-16T05:11:43.839Z,95380.94
2023-03-16T05:14:11.311Z,95377.34
2023-03-16T05:16:38.736Z,95371.19
2023-03-16T05:19:06.196Z,95372.84
2023-03-16T05:21:34.267Z,95379.69
2023-03-16T05:24:03.138Z,95364.03
2023-03-16T05:26:30.571Z,95374.19
2023-03-16T05:28:58.540Z,95371.59
2023-03-16T05:31:26.563Z,95367.22
2023-03-16T05:33:54.154Z,95373.22
2023-03-16T05:36:21.635Z,95372.28
2023-03-16T05:38:49.126Z,95381.72
2023-03-16T05:41:18.325Z,95373.78
2023-03-16T05:43:45.766Z,95380.78
2023-03-16T05:46:13.617Z,95375.41
2023-03-16T05:48:41.097Z,95374.47
2023-03-16T05:51:08.499Z,95363.19
2023-03-16T05:53:36.254Z,95374.47
2023-03-16T05:56:03.666Z,95378.03
2023-03-16T05:58:33.928Z,95377.19
2023-03-16T06:01:02.227Z,95374.59
2023-03-16T06:03:29.937Z,95371.97
2023-03-16T06:05:57.475Z,95372.94
2023-03-16T06:08:24.953Z,95354.84
2023-03-16T06:10:52.404Z,95360.84
2023-03-16T06:13:19.944Z,95371.28
2023-03-16T06:15:48.759Z,95360.84
2023-03-16T06:18:16.255Z,95373.09
2023-03-16T06:20:43.895Z,95378.31
2023-03-16T06:23:11.285Z,95379.13
2023-03-16T06:25:40.661Z,95381.06
2023-03-16T06:28:08.695Z,95377.63
2023-03-16T06:30:36.089Z,95377.63
2023-03-16T06:33:05.125Z,95388.19
2023-03-16T06:35:32.666Z,95392.47
2023-03-16T06:38:00.253Z,95393.28
2023-03-16T06:40:27.923Z,95388.06
2023-03-16T06:42:55.526Z,95389.72
2023-03-16T06:45:23.033Z,95389.72
2023-03-16T06:47:50.468Z,95390.53
2023-03-16T06:50:19.480Z,95382.72
2023-03-16T06:52:46.928Z,95386.94
2023-03-16T06:55:14.517Z,95388.75
2023-03-16T06:57:42.731Z,95380.94
2023-03-16T07:00:11.239Z,95378.31
2023-03-16T07:02:40.428Z,95381.72
2023-03-16T07:05:08.373Z,95396.44
2023-03-16T07:07:37.138Z,95384.34
2023-03-16T07:10:04.785Z,95373.91
2023-03-16T07:12:32.455Z,95382.56
2023-03-16T07:14:59.916Z,95382.56
2023-03-16T07:17:27.336Z,95379.13
2023-03-16T07:19:54.851Z,95373.78
2023-03-16T07:22:22.966Z,95378.16
2023-03-16T07:24:57.241Z,95377.19
2023-03-16T07:27:24.656Z,95381.59
2023-03-16T07:29:52.928Z,95384.22
2023-03-16T07:32:20.641Z,95375.72
2023-03-16T07:34:48.053Z,95382.56
2023-03-16T07:37:17.148Z,95381.59
2023-03-16T07:39:45.806Z,95383.38
2023-03-16T07:42:14.625Z,95390.38
2023-03-16T07:44:42.258Z,95400.00
2023-03-16T07:47:11.641Z,95400.00
2023-03-16T07:49:39.077Z,95386.16
2023-03-16T07:52:06.645Z,95388.75
2023-03-16T07:54:34.183Z,95395.75
2023-03-16T07:57:01.631Z,95400.97
2023-03-16T07:59:31.314Z,95403.56
2023-03-16T08:01:58.875Z,95403.56
2023-03-16T08:04:26.320Z,95408.78
2023-03-16T08:06:59.709Z,95408.78
2023-03-16T08:09:27.223Z,95407.03
2023-03-16T08:11:54.898Z,95407.03
2023-03-16T08:14:22.374Z,95407.03
2023-03-16T08:16:51.585Z,95415.66
2023-03-16T08:19:20.236Z,95414.84
2023-03-16T08:22:00.714Z,95420.06
2023-03-16T08:24:30.653Z,95430.50
2023-03-16T08:26:58.473Z,95426.06
2023-03-16T08:29:25.969Z,95423.47
2023-03-16T08:31:56.292Z,95420.06
2023-03-16T08:34:24.174Z,95423.47
2023-03-16T08:36:51.669Z,95427.88
2023-03-16T08:39:19.139Z,95428.69
2023-03-16T08:41:48.238Z,95421.00
2023-03-16T08:44:15.727Z,95414.00
2023-03-16T08:46:43.402Z,95414.84
2023-03-16T08:49:13.630Z,95414.84
2023-03-16T08:51:41.751Z,95416.63
2023-03-16T08:54:10.830Z,95421.69
2023-03-16T08:56:38.270Z,95426.91
2023-03-16T08:59:05.681Z,95417.47
2023-03-16T09:01:34.008Z,95412.09
2023-03-16T09:04:03.237Z,95407.69
2023-03-16T09:06:32.279Z,95408.50
2023-03-16T09:09:00.037Z,95410.31
2023-03-16T09:11:30.492Z,95411.09
2023-03-16T09:13:58.223Z,95408.50
2023-03-16T09:16:25.979Z,95398.06
2023-03-16T09:18:53.528Z,95403.28
2023-03-16T09:21:21.037Z,95404.25
2023-03-16T09:23:49.822Z,95400.66
2023-03-16T09:26:17.273Z,95401.50
2023-03-16T09:28:44.918Z,95404.25
2023-03-16T09:31:16.591Z,95407.69
2023-03-16T09:33:44.055Z,95399.88
2023-03-16T09:36:12.399Z,95412.09
2023-03-16T09:38:39.978Z,95406.88
2023-03-16T09:41:10.777Z,95409.47
2023-03-16T09:43:49.329Z,95411.25
2023-03-16T09:46:21.724Z,95411.09
2023-03-16T09:48:49.447Z,95417.31
2023-03-16T09:51:20.928Z,95412.91
2023-03-16T09:53:51.444Z,95417.31
2023-03-16T09:56:24.751Z,95421.53
2023-03-16T09:58:52.628Z,95409.47
2023-03-16T10:01:27.315Z,95403.44
2023-03-16T10:04:10.700Z,95407.81
2023-03-16T10:06:42.738Z,95402.47
2023-03-16T10:09:18.691Z,95403.28
2023-03-16T10:11:48.230Z,95401.66
2023-03-16T10:14:20.063Z,95403.44
2023-03-16T10:16:48.925Z,95394.66
2023-03-16T10:19:19.457Z,95390.22
2023-03-16T10:21:48.186Z,95387.78
2023-03-16T10:24:20.300Z,95395.44
2023-03-16T10:26:51.876Z,95393.69
2023-03-16T10:29:19.314Z,95386.81
2023-03-16T10:31:47.445Z,95379.00
2023-03-16T10:34:15.343Z,95372.81
2023-03-16T10:36:44.993Z,95383.25
2023-03-16T10:39:13.634Z,95368.41
2023-03-16T10:41:43.577Z,95368.41
2023-03-16T10:44:13.291Z,95372.81
2023-03-16T10:46:41.676Z,95366.75
2023-03-16T10:49:20.947Z,95364.16
2023-03-16T10:51:48.390Z,95367.59
2023-03-16T10:54:17.321Z,95365.81
2023-03-16T10:56:46.054Z,95352.91
2023-03-16T10:59:17.064Z,95351.09
2023-03-16T11:01:50.027Z,95355.38
2023-03-16T11:04:18.090Z,95344.09
2023-03-16T11:06:50.325Z,95350.16
2023-03-16T11:09:21.211Z,95346.72
2023-03-16T11:11:49.612Z,95335.44
2023-03-16T11:14:20.551Z,95329.44
2023-03-16T11:16:51.068Z,95321.59
2023-03-16T11:19:21.331Z,95324.22
2023-03-16T11:21:54.840Z,95328.59
2023-03-16T11:24:25.306Z,95329.28
2023-03-16T11:26:55.637Z,95319.00
2023-03-16T11:29:26.935Z,95319.78
2023-03-16T11:31:55.593Z,95318.00
2023-03-16T11:34:28.265Z,95311.03
2023-03-16T11:36:56.639Z,95313.63
2023-03-16T11:39:40.461Z,95307.47
2023-03-16T11:42:32.064Z,95308.25
2023-03-16T11:45:10.074Z,95303.88
2023-03-16T11:47:53.981Z,95300.44
2023-03-16T11:50:25.869Z,95292.59
2023-03-16T11:52:58.317Z,95293.44
2023-03-16T11:55:30.560Z,95289.19
2023-03-16T11:58:04.337Z,95282.16
2023-03-16T12:00:37.088Z,95289.88
2023-03-16T12:03:24.863Z,95283.81
2023-03-16T12:05:58.069Z,95276.81
2023-03-16T12:08:30.584Z,95276.81
2023-03-16T12:11:02.307Z,95263.63
2023-03-16T12:13:34.630Z,95268.84
2023-03-16T12:16:06.639Z,95256.63
2023-03-16T12:18:37.635Z,95251.41
2023-03-16T12:21:07.221Z,95243.59
2023-03-16T12:23:37.699Z,95241.78
2023-03-16T12:26:05.287Z,95250.31
2023-03-16T12:28:33.386Z,95236.44
2023-03-16T12:31:10.327Z,95240.81
2023-03-16T12:33:52.870Z,95240.81
2023-03-16T12:36:35.881Z,95243.44
2023-03-16T12:39:06.602Z,95243.44
2023-03-16T12:41:36.419Z,95236.44
2023-03-16T12:44:12.455Z,95245.22
2023-03-16T12:46:47.802Z,95231.22
2023-03-16T12:49:16.087Z,95232.16
2023-03-16T12:51:45.435Z,95234.78
2023-03-16T12:54:20.262Z,95232.16
2023-03-16T12:56:49.059Z,95224.34
2023-03-16T12:59:17.920Z,95230.53
2023-03-16T13:01:49.443Z,95223.50
2023-03-16T13:04:19.188Z,95220.09
2023-03-16T13:06:49.389Z,95217.50
2023-03-16T13:09:19.078Z,95220.91
2023-03-16T13:11:50.312Z,95222.72
2023-03-16T13:14:31.357Z,95213.91
2023-03-16T13:17:06.468Z,95202.63
2023-03-16T13:19:37.699Z,95209.66
2023-03-16T13:22:18.390Z,95209.66
2023-03-16T13:24:51.728Z,95203.63
2023-03-16T13:27:24.269Z,95211.28
2023-03-16T13:29:56.387Z,95203.47
2023-03-16T13:32:25.917Z,95201.69
2023-03-16T13:34:54.366Z,95197.41
2023-03-16T13:37:24.036Z,95203.34
2023-03-16T13:39:55.539Z,95211.16
2023-03-16T13:42:24.418Z,95214.56
2023-03-16T13:44:54.055Z,95214.56
2023-03-16T13:47:21.598Z,95207.56
2023-03-16T13:49:51.659Z,95201.41
2023-03-16T13:52:22.789Z,95194.28
2023-03-16T13:54:51.337Z,95194.38
2023-03-16T13:57:20.663Z,95184.75
2023-03-16T13:59:48.335Z,95186.53
2023-03-16T14:02:18.586Z,95185.75
2023-03-16T14:04:47.016Z,95177.91
2023-03-16T14:07:17.804Z,95181.31
2023-03-16T14:09:46.614Z,95179.69
2023-03-16T14:12:15.668Z,95171.03
2023-03-16T14:14:43.491Z,95180.66
2023-03-16T14:17:12.395Z,95182.47
2023-03-16T14:19:44.329Z,95175.59
2023-03-16T14:22:13.800Z,95172.03
2023-03-16T14:24:43.105Z,95184.25
2023-03-16T14:27:16.839Z,95175.44
2023-03-16T14:29:44.702Z,95172.97
2023-03-16T14:32:21.849Z,95177.38
2023-03-16T14:34:50.276Z,95181.63
2023-03-16T14:37:19.219Z,95179.03
2023-03-16T14:39:59.121Z,95185.88
2023-03-16T14:42:28.696Z,95176.41
2023-03-16T14:44:57.218Z,95182.47
2023-03-16T14:47:26.063Z,95171.19
2023-03-16T14:49:53.694Z,95159.78
2023-03-16T14:52:24.921Z,95164.19
2023-03-16T14:54:55.163Z,95158.00
2023-03-16T14:57:22.893Z,95161.59
2023-03-16T14:59:50.413Z,95158.00
2023-03-16T15:02:20.307Z,95162.38
2023-03-16T15:04:48.979Z,95151.94
2023-03-16T15:07:22.386Z,95161.44
2023-03-16T15:09:51.597Z,95161.44
2023-03-16T15:12:21.046Z,95160.59
2023-03-16T15:15:06.593Z,95145.78
2023-03-16T15:17:34.167Z,95146.59
2023-03-16T15:20:01.885Z,95146.59
2023-03-16T15:22:30.816Z,95152.53
2023-03-16T15:25:00.018Z,95155.22
2023-03-16T15:27:32.854Z,95154.44
2023-03-16T15:30:00.846Z,95151.66
2023-03-16T15:32:28.393Z,95147.41
2023-03-16T15:34:55.833Z,95140.31
2023-03-16T15:37:27.500Z,95136.97
2023-03-16T15:39:55.115Z,95136.88
2023-03-16T15:42:22.710Z,95143.84
2023-03-16T15:44:51.524Z,95142.09
2023-03-16T15:47:19.263Z,95129.13
2023-03-16T15:49:48.060Z,95124.75
2023-03-16T15:52:22.612Z,95130.94
2023-03-16T15:54:50.052Z,95120.50
2023-03-16T15:57:18.283Z,95117.91
2023-03-16T15:59:47.457Z,95121.31
2023-03-16T16:02:25.411Z,95116.09
2023-03-16T16:04:52.902Z,95117.91
2023-03-16T16:07:20.389Z,95113.63
2023-03-16T16:09:47.806Z,95114.31
2023-03-16T16:12:16.615Z,95115.13
2023-03-16T16:14:44.126Z,95105.66
2023-03-16T16:17:11.996Z,95105.66
2023-03-16T16:19:40.827Z,95100.44
2023-03-16T16:22:12.877Z,95108.25
2023-03-16T16:24:40.639Z,95106.66
2023-03-16T16:27:10.859Z,95108.16
2023-03-16T16:29:38.295Z,95118.59
2023-03-16T16:32:17.429Z,95117.91
2023-03-16T16:35:01.726Z,95120.34
2023-03-16T16:37:31.311Z,95114.31
2023-03-16T16:39:58.830Z,95129.13
2023-03-16T16:42:26.511Z,95130.78
2023-03-16T16:44:54.698Z,95130.78
2023-03-16T16:47:22.441Z,95129.13
2023-03-16T16:49:52.014Z,95129.97
2023-03-16T16:52:19.812Z,95140.41
2023-03-16T16:54:47.289Z,95137.78
2023-03-16T16:57:18.890Z,95128.34
2023-03-16T16:59:47.980Z,95134.25
2023-03-16T17:02:22.173Z,95131.75
2023-03-16T17:04:52.178Z,95136.88
2023-03-16T17:07:19.687Z,95133.41
2023-03-16T17:09:47.174Z,95134.25
2023-03-16T17:12:17.373Z,95134.25
2023-03-16T17:14:44.956Z,95141.09
2023-03-16T17:17:15.020Z,95132.47
2023-03-16T17:19:46.436Z,95138.50
2023-03-16T17:22:21.132Z,95135.09
2023-03-16T17:24:49.506Z,95135.09
2023-03-16T17:27:18.640Z,95135.09
2023-03-16T17:29:46.073Z,95149.75
2023-03-16T17:32:18.011Z,95141.09
2023-03-16T17:34:45.515Z,95142.91
2023-03-16T17:37:14.049Z,95153.34
2023-03-16T17:39:42.921Z,95141.09
2023-03-16T17:42:12.870Z,95141.94
2023-03-16T17:44:41.909Z,95145.38
2023-03-16T17:47:14.254Z,95139.31
2023-03-16T17:49:41.720Z,95138.50
2023-03-16T17:52:13.896Z,95135.88
2023-03-16T17:54:42.817Z,95141.94
2023-03-16T17:57:16.337Z,95139.31
2023-03-16T17:59:43.876Z,95141.94
2023-03-16T18:02:24.530Z,95135.88
2023-03-16T18:04:52.167Z,95139.31
2023-03-16T18:07:19.613Z,95134.94
2023-03-16T18:09:48.395Z,95132.31
2023-03-16T18:12:16.652Z,95140.97
2023-03-16T18:14:44.095Z,95135.75
2023-03-16T18:17:17.392Z,95142.75
2023-03-16T18:19:45.466Z,95144.38
2023-03-16T18:22:19.301Z,95144.25
2023-03-16T18:24:48.574Z,95139.03
2023-03-16T18:27:16.530Z,95136.44
2023-03-16T18:29:44.456Z,95143.44
2023-03-16T18:32:17.840Z,95145.06
2023-03-16T18:34:46.026Z,95141.50
2023-03-16T18:37:17.172Z,95140.66
2023-03-16T18:39:44.648Z,95135.31
2023-03-16T18:42:19.041Z,95138.72
2023-03-16T18:44:46.521Z,95123.06
2023-03-16T18:47:18.364Z,95132.72
2023-03-16T18:49:51.224Z,95136.94
2023-03-16T18:52:19.918Z,95131.88
2023-03-16T18:54:48.157Z,95128.28
2023-03-16T18:57:18.704Z,95120.34
2023-03-16T18:59:46.544Z,95124.72
2023-03-16T19:02:25.904Z,95120.47
2023-03-16T19:04:53.468Z,95123.06
2023-03-16T19:07:23.532Z,95125.56
2023-03-16T19:09:51.046Z,95136.00
2023-03-16T19:12:20.870Z,95130.09
2023-03-16T19:14:48.347Z,95130.91
2023-03-16T19:17:16.405Z,95126.66
2023-03-16T19:19:43.871Z,95130.09
2023-03-16T19:22:16.377Z,95126.50
2023-03-16T19:24:46.854Z,95130.91
2023-03-16T19:27:18.132Z,95127.50
2023-03-16T19:29:46.969Z,95130.09
2023-03-16T19:32:17.242Z,95130.09
2023-03-16T19:34:44.763Z,95121.28
2023-03-16T19:37:13.367Z,95125.69
2023-03-16T19:39:40.845Z,95121.44
2023-03-16T19:42:15.906Z,95128.28
2023-03-16T19:44:44.210Z,95130.09
2023-03-16T19:47:22.637Z,95125.69
2023-03-16T19:49:50.116Z,95122.28
2023-03-16T19:52:17.600Z,95127.34
2023-03-16T19:54:45.060Z,95118.84
2023-03-16T19:57:14.178Z,95125.69
2023-03-16T19:59:42.381Z,95125.69
2023-03-16T20:02:23.088Z,95118.69
2023-03-16T20:04:50.597Z,95115.25
2023-03-16T20:07:18.062Z,95116.06
2023-03-16T20:09:45.930Z,95116.06
2023-03-16T20:12:21.180Z,95109.91
2023-03-16T20:14:48.747Z,95104.69
2023-03-16T20:17:21.078Z,95111.53
2023-03-16T20:19:50.126Z,95110.69
2023-03-16T20:22:18.377Z,95102.88
2023-03-16T20:24:46.622Z,95108.91
2023-03-16T20:27:14.154Z,95104.69
2023-03-16T20:29:41.874Z,95103.53
2023-03-16T20:32:15.128Z,95108.09
2023-03-16T20:34:42.621Z,95102.75
2023-03-16T20:37:20.802Z,95101.91
2023-03-16T20:39:49.115Z,95095.84
2023-03-16T20:42:17.716Z,95094.06
2023-03-16T20:44:45.372Z,95095.03
2023-03-16T20:47:14.294Z,95095.03
2023-03-16T20:49:41.745Z,95087.19
2023-03-16T20:52:16.321Z,95096.84
2023-03-16T20:54:43.837Z,95093.41
2023-03-16T20:57:16.633Z,95090.63
2023-03-16T20:59:46.810Z,95083.81
2023-03-16T21:02:25.461Z,95089.81
2023-03-16T21:04:53.073Z,95086.41
2023-03-16T21:07:21.894Z,95082.81
2023-03-16T21:09:50.316Z,95084.59
2023-03-16T21:12:22.088Z,95080.34
2023-03-16T21:14:49.552Z,95083.81
2023-03-16T21:17:24.045Z,95074.31
2023-03-16T21:19:52.763Z,95079.53
2023-03-16T21:22:24.349Z,95082.97
2023-03-16T21:24:52.430Z,95076.94
2023-03-16T21:27:23.040Z,95078.72
2023-03-16T21:29:50.797Z,95079.53
2023-03-16T21:32:20.958Z,95074.31
2023-03-16T21:34:49.398Z,95076.94
2023-03-16T21:37:17.967Z,95069.09
2023-03-16T21:39:47.872Z,95081.19
2023-03-16T21:42:17.156Z,95073.50
2023-03-16T21:44:44.658Z,95068.13
2023-03-16T21:47:20.372Z,95070.75
2023-03-16T21:49:47.813Z,95062.09
2023-03-16T21:52:22.136Z,95055.88
2023-03-16T21:54:50.950Z,95049.88
2023-03-16T21:57:18.425Z,95047.25
2023-03-16T21:59:45.896Z,95044.66
2023-03-16T22:02:18.678Z,95046.44
2023-03-16T22:04:46.365Z,95036.81
2023-03-16T22:07:14.106Z,95051.50
2023-03-16T22:09:41.785Z,95045.59
2023-03-16T22:12:12.028Z,95053.28
2023-03-16T22:14:39.724Z,95051.66
2023-03-16T22:17:07.492Z,95047.38
2023-03-16T22:19:35.521Z,95053.44
2023-03-16T22:22:03.083Z,95043.00
2023-03-16T22:24:34.893Z,95041.38
2023-03-16T22:27:02.556Z,95043.00
2023-03-16T22:29:33.377Z,95058.66
2023-03-16T22:32:03.080Z,95049.22
2023-03-16T22:34:32.182Z,95052.59
2023-03-16T22:37:00.851Z,95052.59
2023-03-16T22:39:37.631Z,95048.22
2023-03-16T22:42:17.793Z,95059.47
2023-03-16T22:44:46.573Z,95051.81
2023-03-16T22:47:21.007Z,95050.00
2023-03-16T22:49:48.429Z,95046.59
2023-03-16T22:52:16.090Z,95051.81
2023-03-16T22:54:43.757Z,95045.78
2023-03-16T22:57:13.758Z,95046.72
2023-03-16T22:59:41.477Z,95037.94
2023-03-16T23:02:13.975Z,95045.78
2023-03-16T23:04:41.441Z,95048.38
2023-03-16T23:07:11.789Z,95043.16
2023-03-16T23:09:39.460Z,95038.91
2023-03-16T23:12:12.002Z,95041.50
2023-03-16T23:14:39.538Z,95036.28
2023-03-16T23:17:13.458Z,95039.72
2023-03-16T23:19:42.571Z,95036.28
2023-03-16T23:22:11.328Z,95032.84
2023-03-16T23:24:39.090Z,95031.91
2023-03-16T23:27:08.210Z,95033.69
2023-03-16T23:29:35.705Z,95029.44
2023-03-16T23:32:04.359Z,95031.06
2023-03-16T23:34:32.076Z,95023.41
2023-03-16T23:37:00.872Z,95023.41
2023-03-16T23:39:29.046Z,95019.00
2023-03-16T23:41:57.260Z,95016.41
2023-03-16T23:44:27.031Z,95019.00
2023-03-16T23:46:54.515Z,95019.13
2023-03-16T23:49:23.166Z,95010.50
2023-03-16T23:51:51.276Z,95009.69
2023-03-16T23:54:21.050Z,95005.28
2023-03-16T23:56:48.639Z,95007.06
2023-03-16T23:59:16.379Z,95005.41
